Alfred, Texas
Current Conditions -  °F | °C
As of 5:53 AM on Sunday 23 Nov 2014 (Local Time) from KALI Reporting Station
Clear Clear  
Wind Chill: 57°   Ceiling: Unl
Heat Index: 57°   Visibility: 10mi
Dew Point: 55°   Wind: 7mph
Humidity: 93%   Direction: 240°WSW
Pressure: 29.74"   Gusts: NA
Location:  27.6821°N, 98.1034°W
Report Text: KALI 231153Z AUTO 24006KT 10SM CLR 14/13 A2974 RMK AO2 SLP068 70038 T01390128 10167 20139 55001
Loading
Personal Weather Stations






























Interactive Weather Map New forecast layout! Learn more

10-Day Weather Forecast

Advertisements
Track Severe Weather on mobile